sensor_id;sensor_type;location;lat;lon;timestamp;P1;durP1;ratioP1;P2;durP2;ratioP2
40871;SDS011;26591;43.264;26.940;2023-02-28T00:00:23;4.57;;;4.00;;
40871;SDS011;26591;43.264;26.940;2023-02-28T00:02:49;4.65;;;3.63;;
40871;SDS011;26591;43.264;26.940;2023-02-28T00:05:16;8.15;;;5.47;;
40871;SDS011;26591;43.264;26.940;2023-02-28T00:07:43;7.10;;;3.70;;
40871;SDS011;26591;43.264;26.940;2023-02-28T00:10:10;12.50;;;8.10;;
40871;SDS011;26591;43.264;26.940;2023-02-28T00:12:37;6.90;;;5.13;;
40871;SDS011;26591;43.264;26.940;2023-02-28T00:15:07;5.50;;;4.85;;
40871;SDS011;26591;43.264;26.940;2023-02-28T00:17:35;7.70;;;5.25;;
40871;SDS011;26591;43.264;26.940;2023-02-28T00:20:02;8.73;;;6.05;;
40871;SDS011;26591;43.264;26.940;2023-02-28T00:22:40;6.07;;;4.88;;
40871;SDS011;26591;43.264;26.940;2023-02-28T00:25:08;7.70;;;6.18;;
40871;SDS011;26591;43.264;26.940;2023-02-28T00:27:35;7.68;;;4.43;;
40871;SDS011;26591;43.264;26.940;2023-02-28T00:30:02;5.53;;;4.80;;
40871;SDS011;26591;43.264;26.940;2023-02-28T00:32:30;5.95;;;4.80;;
40871;SDS011;26591;43.264;26.940;2023-02-28T00:34:56;15.88;;;10.13;;
40871;SDS011;26591;43.264;26.940;2023-02-28T00:37:22;6.03;;;4.97;;
40871;SDS011;26591;43.264;26.940;2023-02-28T00:39:47;6.93;;;5.40;;
40871;SDS011;26591;43.264;26.940;2023-02-28T00:42:13;5.75;;;5.05;;
40871;SDS011;26591;43.264;26.940;2023-02-28T00:44:38;21.65;;;12.80;;
40871;SDS011;26591;43.264;26.940;2023-02-28T00:47:04;5.80;;;5.03;;
40871;SDS011;26591;43.264;26.940;2023-02-28T00:49:30;9.05;;;6.15;;
40871;SDS011;26591;43.264;26.940;2023-02-28T00:51:55;6.47;;;5.03;;
40871;SDS011;26591;43.264;26.940;2023-02-28T00:54:21;5.43;;;4.65;;
40871;SDS011;26591;43.264;26.940;2023-02-28T00:56:48;5.28;;;4.30;;
40871;SDS011;26591;43.264;26.940;2023-02-28T00:59:14;6.03;;;4.72;;
40871;SDS011;26591;43.264;26.940;2023-02-28T01:01:41;6.20;;;5.20;;
40871;SDS011;26591;43.264;26.940;2023-02-28T01:04:07;7.20;;;5.13;;
40871;SDS011;26591;43.264;26.940;2023-02-28T01:06:33;7.18;;;5.45;;
40871;SDS011;26591;43.264;26.940;2023-02-28T01:08:59;8.90;;;6.30;;
40871;SDS011;26591;43.264;26.940;2023-02-28T01:11:25;6.72;;;5.70;;
40871;SDS011;26591;43.264;26.940;2023-02-28T01:13:51;6.32;;;5.18;;
40871;SDS011;26591;43.264;26.940;2023-02-28T01:16:17;7.45;;;5.40;;
40871;SDS011;26591;43.264;26.940;2023-02-28T01:18:42;8.07;;;6.18;;
40871;SDS011;26591;43.264;26.940;2023-02-28T01:21:12;6.65;;;5.28;;
40871;SDS011;26591;43.264;26.940;2023-02-28T01:23:42;5.88;;;5.10;;
40871;SDS011;26591;43.264;26.940;2023-02-28T01:26:09;6.60;;;5.95;;
40871;SDS011;26591;43.264;26.940;2023-02-28T01:28:37;7.82;;;7.03;;
40871;SDS011;26591;43.264;26.940;2023-02-28T01:31:02;7.55;;;5.90;;
40871;SDS011;26591;43.264;26.940;2023-02-28T01:33:28;7.38;;;6.00;;
40871;SDS011;26591;43.264;26.940;2023-02-28T01:35:58;6.80;;;5.55;;
40871;SDS011;26591;43.264;26.940;2023-02-28T01:38:28;6.57;;;5.65;;
40871;SDS011;26591;43.264;26.940;2023-02-28T01:40:54;8.63;;;5.95;;
40871;SDS011;26591;43.264;26.940;2023-02-28T01:43:27;8.10;;;6.70;;
40871;SDS011;26591;43.264;26.940;2023-02-28T01:45:53;6.18;;;5.50;;
40871;SDS011;26591;43.264;26.940;2023-02-28T01:48:21;8.88;;;4.63;;
40871;SDS011;26591;43.264;26.940;2023-02-28T01:51:01;7.57;;;5.40;;
40871;SDS011;26591;43.264;26.940;2023-02-28T01:53:33;7.47;;;6.10;;
40871;SDS011;26591;43.264;26.940;2023-02-28T01:56:06;8.02;;;5.97;;
40871;SDS011;26591;43.264;26.940;2023-02-28T01:58:35;7.97;;;5.57;;
40871;SDS011;26591;43.264;26.940;2023-02-28T02:01:02;6.80;;;5.55;;
40871;SDS011;26591;43.264;26.940;2023-02-28T02:03:28;5.80;;;5.13;;
40871;SDS011;26591;43.264;26.940;2023-02-28T02:05:55;6.60;;;5.88;;
40871;SDS011;26591;43.264;26.940;2023-02-28T02:08:24;6.45;;;5.15;;
40871;SDS011;26591;43.264;26.940;2023-02-28T02:10:52;8.30;;;6.07;;
40871;SDS011;26591;43.264;26.940;2023-02-28T02:16:04;6.03;;;5.10;;
40871;SDS011;26591;43.264;26.940;2023-02-28T02:35:05;9.15;;;6.72;;
40871;SDS011;26591;43.264;26.940;2023-02-28T02:42:48;6.38;;;5.40;;
40871;SDS011;26591;43.264;26.940;2023-02-28T02:45:25;7.85;;;5.65;;
40871;SDS011;26591;43.264;26.940;2023-02-28T02:48:07;6.65;;;5.38;;
40871;SDS011;26591;43.264;26.940;2023-02-28T02:50:39;8.57;;;6.35;;
40871;SDS011;26591;43.264;26.940;2023-02-28T02:53:09;8.15;;;6.88;;
40871;SDS011;26591;43.264;26.940;2023-02-28T02:55:38;7.65;;;6.07;;
40871;SDS011;26591;43.264;26.940;2023-02-28T02:58:10;5.40;;;4.75;;
40871;SDS011;26591;43.264;26.940;2023-02-28T03:00:43;6.05;;;5.45;;
40871;SDS011;26591;43.264;26.940;2023-02-28T03:03:13;8.95;;;7.22;;
40871;SDS011;26591;43.264;26.940;2023-02-28T03:05:46;13.27;;;6.25;;
40871;SDS011;26591;43.264;26.940;2023-02-28T03:08:15;6.78;;;5.82;;
40871;SDS011;26591;43.264;26.940;2023-02-28T03:10:42;6.57;;;5.90;;
40871;SDS011;26591;43.264;26.940;2023-02-28T03:18:43;6.30;;;5.57;;
40871;SDS011;26591;43.264;26.940;2023-02-28T03:24:19;7.28;;;6.07;;
40871;SDS011;26591;43.264;26.940;2023-02-28T03:26:57;8.70;;;7.03;;
40871;SDS011;26591;43.264;26.940;2023-02-28T03:29:33;7.75;;;6.95;;
40871;SDS011;26591;43.264;26.940;2023-02-28T03:32:22;9.18;;;8.13;;
40871;SDS011;26591;43.264;26.940;2023-02-28T03:34:52;9.48;;;7.72;;
40871;SDS011;26591;43.264;26.940;2023-02-28T03:37:25;9.30;;;6.93;;
40871;SDS011;26591;43.264;26.940;2023-02-28T03:40:05;8.23;;;6.60;;
40871;SDS011;26591;43.264;26.940;2023-02-28T03:42:36;8.13;;;6.22;;
40871;SDS011;26591;43.264;26.940;2023-02-28T03:45:22;6.88;;;5.82;;
40871;SDS011;26591;43.264;26.940;2023-02-28T03:47:53;6.95;;;5.57;;
40871;SDS011;26591;43.264;26.940;2023-02-28T03:50:24;6.93;;;5.70;;
40871;SDS011;26591;43.264;26.940;2023-02-28T03:55:26;6.18;;;5.57;;
40871;SDS011;26591;43.264;26.940;2023-02-28T03:58:00;7.88;;;5.57;;
40871;SDS011;26591;43.264;26.940;2023-02-28T04:01:31;5.93;;;5.32;;
40871;SDS011;26591;43.264;26.940;2023-02-28T04:03:34;7.22;;;5.95;;
40871;SDS011;26591;43.264;26.940;2023-02-28T04:06:04;5.53;;;5.00;;
40871;SDS011;26591;43.264;26.940;2023-02-28T04:08:32;6.72;;;5.40;;
40871;SDS011;26591;43.264;26.940;2023-02-28T04:11:03;7.50;;;5.80;;
40871;SDS011;26591;43.264;26.940;2023-02-28T04:13:44;7.03;;;5.63;;
40871;SDS011;26591;43.264;26.940;2023-02-28T04:16:09;6.90;;;6.10;;
40871;SDS011;26591;43.264;26.940;2023-02-28T04:18:39;7.95;;;6.38;;
40871;SDS011;26591;43.264;26.940;2023-02-28T04:21:06;9.82;;;6.82;;
40871;SDS011;26591;43.264;26.940;2023-02-28T04:23:32;8.68;;;6.28;;
40871;SDS011;26591;43.264;26.940;2023-02-28T04:25:57;8.60;;;7.20;;
40871;SDS011;26591;43.264;26.940;2023-02-28T04:28:22;7.72;;;6.63;;
40871;SDS011;26591;43.264;26.940;2023-02-28T04:30:53;8.43;;;7.43;;
40871;SDS011;26591;43.264;26.940;2023-02-28T04:33:20;8.25;;;7.32;;
40871;SDS011;26591;43.264;26.940;2023-02-28T04:35:46;10.40;;;7.47;;
40871;SDS011;26591;43.264;26.940;2023-02-28T04:38:11;7.85;;;7.10;;
40871;SDS011;26591;43.264;26.940;2023-02-28T04:40:37;8.90;;;8.00;;
40871;SDS011;26591;43.264;26.940;2023-02-28T04:43:02;9.02;;;7.88;;
40871;SDS011;26591;43.264;26.940;2023-02-28T04:45:28;8.93;;;7.65;;
40871;SDS011;26591;43.264;26.940;2023-02-28T04:47:57;8.70;;;7.80;;
40871;SDS011;26591;43.264;26.940;2023-02-28T04:50:22;8.65;;;7.75;;
40871;SDS011;26591;43.264;26.940;2023-02-28T04:52:48;9.60;;;7.63;;
40871;SDS011;26591;43.264;26.940;2023-02-28T04:55:13;9.05;;;7.57;;
40871;SDS011;26591;43.264;26.940;2023-02-28T04:57:39;9.80;;;8.15;;
40871;SDS011;26591;43.264;26.940;2023-02-28T05:00:07;8.32;;;7.40;;
40871;SDS011;26591;43.264;26.940;2023-02-28T05:02:36;8.90;;;8.00;;
40871;SDS011;26591;43.264;26.940;2023-02-28T05:05:03;9.15;;;8.25;;
40871;SDS011;26591;43.264;26.940;2023-02-28T05:07:29;7.85;;;7.05;;
40871;SDS011;26591;43.264;26.940;2023-02-28T05:09:55;7.93;;;7.10;;
40871;SDS011;26591;43.264;26.940;2023-02-28T05:12:20;9.63;;;8.30;;
40871;SDS011;26591;43.264;26.940;2023-02-28T05:14:46;8.82;;;7.18;;
40871;SDS011;26591;43.264;26.940;2023-02-28T05:17:11;13.40;;;9.90;;
40871;SDS011;26591;43.264;26.940;2023-02-28T05:19:36;9.65;;;8.63;;
40871;SDS011;26591;43.264;26.940;2023-02-28T05:22:02;9.23;;;8.30;;
40871;SDS011;26591;43.264;26.940;2023-02-28T05:24:27;8.85;;;7.95;;
40871;SDS011;26591;43.264;26.940;2023-02-28T05:26:53;10.15;;;8.40;;
40871;SDS011;26591;43.264;26.940;2023-02-28T05:29:20;8.57;;;7.28;;
40871;SDS011;26591;43.264;26.940;2023-02-28T05:31:45;10.40;;;9.00;;
40871;SDS011;26591;43.264;26.940;2023-02-28T05:34:11;9.88;;;8.77;;
40871;SDS011;26591;43.264;26.940;2023-02-28T05:36:37;9.98;;;8.40;;
40871;SDS011;26591;43.264;26.940;2023-02-28T05:39:07;9.80;;;8.80;;
40871;SDS011;26591;43.264;26.940;2023-02-28T05:41:37;9.75;;;8.65;;
40871;SDS011;26591;43.264;26.940;2023-02-28T05:44:07;12.27;;;9.32;;
40871;SDS011;26591;43.264;26.940;2023-02-28T05:46:32;11.32;;;9.55;;
40871;SDS011;26591;43.264;26.940;2023-02-28T05:48:58;10.80;;;8.90;;
40871;SDS011;26591;43.264;26.940;2023-02-28T05:51:25;11.80;;;9.98;;
40871;SDS011;26591;43.264;26.940;2023-02-28T05:53:50;12.95;;;10.50;;
40871;SDS011;26591;43.264;26.940;2023-02-28T05:56:16;11.80;;;10.20;;
40871;SDS011;26591;43.264;26.940;2023-02-28T05:58:41;20.88;;;9.40;;
40871;SDS011;26591;43.264;26.940;2023-02-28T06:01:24;13.65;;;11.02;;
40871;SDS011;26591;43.264;26.940;2023-02-28T06:03:57;13.15;;;10.77;;
40871;SDS011;26591;43.264;26.940;2023-02-28T06:06:24;10.73;;;9.30;;
40871;SDS011;26591;43.264;26.940;2023-02-28T06:08:49;10.65;;;9.25;;
40871;SDS011;26591;43.264;26.940;2023-02-28T06:11:15;11.20;;;9.63;;
40871;SDS011;26591;43.264;26.940;2023-02-28T06:13:40;12.15;;;10.30;;
40871;SDS011;26591;43.264;26.940;2023-02-28T06:16:10;11.73;;;9.00;;
40871;SDS011;26591;43.264;26.940;2023-02-28T06:18:36;11.98;;;9.70;;
40871;SDS011;26591;43.264;26.940;2023-02-28T06:21:01;15.07;;;10.95;;
40871;SDS011;26591;43.264;26.940;2023-02-28T06:23:27;11.93;;;10.00;;
40871;SDS011;26591;43.264;26.940;2023-02-28T06:25:52;11.18;;;9.98;;
40871;SDS011;26591;43.264;26.940;2023-02-28T06:28:18;11.95;;;10.07;;
40871;SDS011;26591;43.264;26.940;2023-02-28T06:30:44;11.55;;;10.10;;
40871;SDS011;26591;43.264;26.940;2023-02-28T06:33:09;11.52;;;10.32;;
40871;SDS011;26591;43.264;26.940;2023-02-28T06:35:35;11.68;;;10.25;;
40871;SDS011;26591;43.264;26.940;2023-02-28T06:38:00;11.90;;;10.38;;
40871;SDS011;26591;43.264;26.940;2023-02-28T06:40:26;11.55;;;9.82;;
40871;SDS011;26591;43.264;26.940;2023-02-28T06:42:52;11.00;;;9.48;;
40871;SDS011;26591;43.264;26.940;2023-02-28T06:45:17;11.15;;;9.90;;
40871;SDS011;26591;43.264;26.940;2023-02-28T06:47:43;11.50;;;9.63;;
40871;SDS011;26591;43.264;26.940;2023-02-28T06:50:11;11.70;;;10.52;;
40871;SDS011;26591;43.264;26.940;2023-02-28T06:52:37;12.73;;;10.48;;
40871;SDS011;26591;43.264;26.940;2023-02-28T06:55:04;13.30;;;11.90;;
40871;SDS011;26591;43.264;26.940;2023-02-28T06:57:30;13.23;;;11.57;;
40871;SDS011;26591;43.264;26.940;2023-02-28T06:59:57;11.18;;;9.95;;
40871;SDS011;26591;43.264;26.940;2023-02-28T07:02:28;11.90;;;10.23;;
40871;SDS011;26591;43.264;26.940;2023-02-28T07:04:53;12.40;;;11.00;;
40871;SDS011;26591;43.264;26.940;2023-02-28T07:07:19;13.40;;;10.90;;
40871;SDS011;26591;43.264;26.940;2023-02-28T07:09:45;15.85;;;11.30;;
40871;SDS011;26591;43.264;26.940;2023-02-28T07:12:10;15.40;;;12.77;;
40871;SDS011;26591;43.264;26.940;2023-02-28T07:14:36;12.85;;;11.02;;
40871;SDS011;26591;43.264;26.940;2023-02-28T07:17:02;15.23;;;11.80;;
40871;SDS011;26591;43.264;26.940;2023-02-28T07:19:28;13.32;;;11.13;;
40871;SDS011;26591;43.264;26.940;2023-02-28T07:21:54;11.45;;;9.57;;
40871;SDS011;26591;43.264;26.940;2023-02-28T07:24:19;12.93;;;10.88;;
40871;SDS011;26591;43.264;26.940;2023-02-28T07:26:44;19.95;;;11.65;;
40871;SDS011;26591;43.264;26.940;2023-02-28T07:29:10;12.93;;;10.50;;
40871;SDS011;26591;43.264;26.940;2023-02-28T07:31:36;13.20;;;10.00;;
40871;SDS011;26591;43.264;26.940;2023-02-28T07:34:01;14.98;;;12.27;;
40871;SDS011;26591;43.264;26.940;2023-02-28T07:36:27;14.35;;;10.98;;
40871;SDS011;26591;43.264;26.940;2023-02-28T07:38:53;14.55;;;9.98;;
40871;SDS011;26591;43.264;26.940;2023-02-28T07:41:19;15.02;;;11.82;;
40871;SDS011;26591;43.264;26.940;2023-02-28T07:43:46;12.82;;;10.48;;
40871;SDS011;26591;43.264;26.940;2023-02-28T07:46:12;12.15;;;9.32;;
40871;SDS011;26591;43.264;26.940;2023-02-28T07:48:43;13.55;;;10.48;;
40871;SDS011;26591;43.264;26.940;2023-02-28T07:51:09;18.80;;;12.35;;
40871;SDS011;26591;43.264;26.940;2023-02-28T07:56:47;15.40;;;12.40;;
40871;SDS011;26591;43.264;26.940;2023-02-28T07:59:12;17.70;;;10.70;;
40871;SDS011;26591;43.264;26.940;2023-02-28T08:01:38;13.15;;;11.45;;
40871;SDS011;26591;43.264;26.940;2023-02-28T08:04:03;13.55;;;11.80;;
40871;SDS011;26591;43.264;26.940;2023-02-28T08:06:29;15.75;;;12.40;;
40871;SDS011;26591;43.264;26.940;2023-02-28T08:08:54;16.83;;;12.27;;
40871;SDS011;26591;43.264;26.940;2023-02-28T08:11:21;15.93;;;12.60;;
40871;SDS011;26591;43.264;26.940;2023-02-28T08:13:46;16.48;;;11.43;;
40871;SDS011;26591;43.264;26.940;2023-02-28T08:16:12;16.08;;;10.90;;
40871;SDS011;26591;43.264;26.940;2023-02-28T08:18:47;14.32;;;10.75;;
40871;SDS011;26591;43.264;26.940;2023-02-28T08:21:14;13.07;;;10.82;;
40871;SDS011;26591;43.264;26.940;2023-02-28T08:23:39;15.32;;;12.20;;
40871;SDS011;26591;43.264;26.940;2023-02-28T08:26:05;15.55;;;11.93;;
40871;SDS011;26591;43.264;26.940;2023-02-28T08:28:31;14.93;;;12.60;;
40871;SDS011;26591;43.264;26.940;2023-02-28T08:30:59;14.30;;;11.07;;
40871;SDS011;26591;43.264;26.940;2023-02-28T08:33:25;14.98;;;11.85;;
40871;SDS011;26591;43.264;26.940;2023-02-28T08:35:53;14.02;;;11.85;;
40871;SDS011;26591;43.264;26.940;2023-02-28T08:38:19;13.30;;;11.23;;
40871;SDS011;26591;43.264;26.940;2023-02-28T08:40:44;14.45;;;11.35;;
40871;SDS011;26591;43.264;26.940;2023-02-28T08:43:10;17.17;;;12.90;;
40871;SDS011;26591;43.264;26.940;2023-02-28T08:45:35;13.95;;;11.80;;
40871;SDS011;26591;43.264;26.940;2023-02-28T08:48:01;15.40;;;12.43;;
40871;SDS011;26591;43.264;26.940;2023-02-28T08:50:26;13.45;;;11.23;;
40871;SDS011;26591;43.264;26.940;2023-02-28T08:52:52;13.85;;;10.93;;
40871;SDS011;26591;43.264;26.940;2023-02-28T08:55:17;25.50;;;13.07;;
40871;SDS011;26591;43.264;26.940;2023-02-28T08:57:43;17.17;;;13.15;;
40871;SDS011;26591;43.264;26.940;2023-02-28T09:00:09;15.95;;;13.60;;
40871;SDS011;26591;43.264;26.940;2023-02-28T09:02:38;17.25;;;12.88;;
40871;SDS011;26591;43.264;26.940;2023-02-28T09:05:04;19.48;;;13.82;;
40871;SDS011;26591;43.264;26.940;2023-02-28T09:07:30;17.63;;;14.30;;
40871;SDS011;26591;43.264;26.940;2023-02-28T09:09:57;20.10;;;14.30;;
40871;SDS011;26591;43.264;26.940;2023-02-28T09:12:37;20.15;;;14.15;;
40871;SDS011;26591;43.264;26.940;2023-02-28T09:15:03;19.42;;;14.88;;
40871;SDS011;26591;43.264;26.940;2023-02-28T09:17:29;21.00;;;15.90;;
40871;SDS011;26591;43.264;26.940;2023-02-28T09:19:54;18.73;;;14.65;;
40871;SDS011;26591;43.264;26.940;2023-02-28T09:22:20;19.90;;;15.93;;
40871;SDS011;26591;43.264;26.940;2023-02-28T09:24:46;18.35;;;15.15;;
40871;SDS011;26591;43.264;26.940;2023-02-28T09:27:13;24.77;;;16.50;;
40871;SDS011;26591;43.264;26.940;2023-02-28T09:29:38;23.55;;;18.00;;
40871;SDS011;26591;43.264;26.940;2023-02-28T09:32:04;24.98;;;17.80;;
40871;SDS011;26591;43.264;26.940;2023-02-28T09:34:30;24.10;;;17.88;;
40871;SDS011;26591;43.264;26.940;2023-02-28T09:36:56;31.05;;;20.23;;
40871;SDS011;26591;43.264;26.940;2023-02-28T09:39:22;36.53;;;21.75;;
40871;SDS011;26591;43.264;26.940;2023-02-28T09:41:50;28.63;;;20.48;;
40871;SDS011;26591;43.264;26.940;2023-02-28T09:44:36;28.23;;;20.52;;
40871;SDS011;26591;43.264;26.940;2023-02-28T09:47:08;31.95;;;21.08;;
40871;SDS011;26591;43.264;26.940;2023-02-28T09:55:28;33.30;;;21.30;;
40871;SDS011;26591;43.264;26.940;2023-02-28T09:58:18;35.40;;;22.65;;
40871;SDS011;26591;43.264;26.940;2023-02-28T10:01:00;33.45;;;22.08;;
40871;SDS011;26591;43.264;26.940;2023-02-28T10:03:42;35.35;;;24.50;;
40871;SDS011;26591;43.264;26.940;2023-02-28T10:06:14;38.13;;;23.65;;
40871;SDS011;26591;43.264;26.940;2023-02-28T10:08:51;37.45;;;25.98;;
40871;SDS011;26591;43.264;26.940;2023-02-28T10:11:23;38.13;;;25.48;;
40871;SDS011;26591;43.264;26.940;2023-02-28T10:13:57;36.88;;;24.88;;
40871;SDS011;26591;43.264;26.940;2023-02-28T10:16:40;44.28;;;26.23;;
40871;SDS011;26591;43.264;26.940;2023-02-28T10:22:05;39.10;;;25.13;;
40871;SDS011;26591;43.264;26.940;2023-02-28T10:24:53;34.78;;;22.58;;
40871;SDS011;26591;43.264;26.940;2023-02-28T10:27:25;44.97;;;26.88;;
40871;SDS011;26591;43.264;26.940;2023-02-28T10:29:56;41.63;;;25.98;;
40871;SDS011;26591;43.264;26.940;2023-02-28T10:32:31;41.85;;;26.33;;
40871;SDS011;26591;43.264;26.940;2023-02-28T10:37:51;43.80;;;27.70;;
40871;SDS011;26591;43.264;26.940;2023-02-28T10:45:23;40.80;;;27.23;;
40871;SDS011;26591;43.264;26.940;2023-02-28T10:47:54;42.53;;;26.73;;
40871;SDS011;26591;43.264;26.940;2023-02-28T10:50:55;43.00;;;28.35;;
40871;SDS011;26591;43.264;26.940;2023-02-28T10:56:32;38.00;;;26.60;;
40871;SDS011;26591;43.264;26.940;2023-02-28T11:01:34;42.08;;;26.80;;
40871;SDS011;26591;43.264;26.940;2023-02-28T11:04:18;40.67;;;28.15;;
40871;SDS011;26591;43.264;26.940;2023-02-28T11:06:44;38.47;;;26.88;;
40871;SDS011;26591;43.264;26.940;2023-02-28T11:11:49;41.08;;;26.05;;
40871;SDS011;26591;43.264;26.940;2023-02-28T11:14:19;39.70;;;27.58;;
40871;SDS011;26591;43.264;26.940;2023-02-28T11:16:47;39.80;;;27.40;;
40871;SDS011;26591;43.264;26.940;2023-02-28T11:19:22;38.42;;;25.50;;
40871;SDS011;26591;43.264;26.940;2023-02-28T11:21:56;34.70;;;24.88;;
40871;SDS011;26591;43.264;26.940;2023-02-28T11:24:35;33.55;;;23.75;;
40871;SDS011;26591;43.264;26.940;2023-02-28T11:27:06;39.08;;;26.10;;
40871;SDS011;26591;43.264;26.940;2023-02-28T11:29:49;36.03;;;26.08;;
40871;SDS011;26591;43.264;26.940;2023-02-28T11:34:46;38.95;;;27.23;;
40871;SDS011;26591;43.264;26.940;2023-02-28T11:37:25;38.75;;;27.05;;
40871;SDS011;26591;43.264;26.940;2023-02-28T11:39:52;36.03;;;22.63;;
40871;SDS011;26591;43.264;26.940;2023-02-28T11:42:30;30.73;;;21.35;;
40871;SDS011;26591;43.264;26.940;2023-02-28T11:48:10;35.15;;;22.90;;
40871;SDS011;26591;43.264;26.940;2023-02-28T11:51:04;41.58;;;25.75;;
40871;SDS011;26591;43.264;26.940;2023-02-28T12:02:03;42.05;;;24.50;;
40871;SDS011;26591;43.264;26.940;2023-02-28T12:04:52;36.83;;;21.83;;
40871;SDS011;26591;43.264;26.940;2023-02-28T12:10:21;31.42;;;19.25;;
40871;SDS011;26591;43.264;26.940;2023-02-28T12:13:12;33.45;;;21.42;;
40871;SDS011;26591;43.264;26.940;2023-02-28T12:26:26;32.35;;;20.80;;
40871;SDS011;26591;43.264;26.940;2023-02-28T12:31:49;35.22;;;20.63;;
40871;SDS011;26591;43.264;26.940;2023-02-28T12:34:38;29.55;;;18.73;;
40871;SDS011;26591;43.264;26.940;2023-02-28T12:37:10;30.00;;;18.77;;
40871;SDS011;26591;43.264;26.940;2023-02-28T12:39:45;30.70;;;19.25;;
40871;SDS011;26591;43.264;26.940;2023-02-28T12:42:19;34.30;;;19.83;;
40871;SDS011;26591;43.264;26.940;2023-02-28T12:44:53;38.05;;;19.90;;
40871;SDS011;26591;43.264;26.940;2023-02-28T12:47:23;24.77;;;17.20;;
40871;SDS011;26591;43.264;26.940;2023-02-28T12:49:54;31.10;;;17.98;;
40871;SDS011;26591;43.264;26.940;2023-02-28T12:52:46;23.17;;;17.13;;
40871;SDS011;26591;43.264;26.940;2023-02-28T12:58:36;35.90;;;20.85;;
40871;SDS011;26591;43.264;26.940;2023-02-28T13:04:03;30.90;;;19.67;;
40871;SDS011;26591;43.264;26.940;2023-02-28T13:09:19;32.15;;;21.23;;
40871;SDS011;26591;43.264;26.940;2023-02-28T13:11:49;27.77;;;20.67;;
40871;SDS011;26591;43.264;26.940;2023-02-28T13:14:26;31.55;;;20.00;;
40871;SDS011;26591;43.264;26.940;2023-02-28T13:19:45;26.55;;;19.10;;
40871;SDS011;26591;43.264;26.940;2023-02-28T13:24:56;27.65;;;17.10;;
40871;SDS011;26591;43.264;26.940;2023-02-28T13:29:56;27.50;;;19.45;;
40871;SDS011;26591;43.264;26.940;2023-02-28T13:39:50;34.10;;;21.02;;
40871;SDS011;26591;43.264;26.940;2023-02-28T14:01:08;29.95;;;19.70;;
40871;SDS011;26591;43.264;26.940;2023-02-28T14:06:36;35.85;;;19.77;;
40871;SDS011;26591;43.264;26.940;2023-02-28T14:09:23;28.58;;;18.08;;
40871;SDS011;26591;43.264;26.940;2023-02-28T14:11:52;31.48;;;19.13;;
40871;SDS011;26591;43.264;26.940;2023-02-28T14:14:53;32.38;;;17.73;;
40871;SDS011;26591;43.264;26.940;2023-02-28T14:17:14;27.73;;;18.65;;
40871;SDS011;26591;43.264;26.940;2023-02-28T14:19:43;28.48;;;20.08;;
40871;SDS011;26591;43.264;26.940;2023-02-28T14:36:01;24.27;;;14.90;;
40871;SDS011;26591;43.264;26.940;2023-02-28T14:38:29;24.60;;;15.60;;
40871;SDS011;26591;43.264;26.940;2023-02-28T14:40:58;26.70;;;16.08;;
40871;SDS011;26591;43.264;26.940;2023-02-28T14:43:28;26.35;;;16.88;;
40871;SDS011;26591;43.264;26.940;2023-02-28T14:45:57;23.20;;;15.43;;
40871;SDS011;26591;43.264;26.940;2023-02-28T14:48:25;24.88;;;17.20;;
40871;SDS011;26591;43.264;26.940;2023-02-28T14:50:56;25.35;;;17.77;;
40871;SDS011;26591;43.264;26.940;2023-02-28T14:53:25;20.88;;;14.73;;
40871;SDS011;26591;43.264;26.940;2023-02-28T14:55:53;23.25;;;17.00;;
40871;SDS011;26591;43.264;26.940;2023-02-28T14:58:24;25.13;;;15.68;;
40871;SDS011;26591;43.264;26.940;2023-02-28T15:00:52;24.65;;;16.15;;
40871;SDS011;26591;43.264;26.940;2023-02-28T15:03:24;19.80;;;13.45;;
40871;SDS011;26591;43.264;26.940;2023-02-28T15:05:59;20.17;;;16.95;;
40871;SDS011;26591;43.264;26.940;2023-02-28T15:08:37;25.08;;;17.05;;
40871;SDS011;26591;43.264;26.940;2023-02-28T15:11:36;19.98;;;13.95;;
40871;SDS011;26591;43.264;26.940;2023-02-28T15:13:54;26.55;;;17.85;;
40871;SDS011;26591;43.264;26.940;2023-02-28T15:16:39;24.55;;;18.13;;
40871;SDS011;26591;43.264;26.940;2023-02-28T15:19:14;23.00;;;17.02;;
40871;SDS011;26591;43.264;26.940;2023-02-28T15:21:50;25.20;;;15.43;;
40871;SDS011;26591;43.264;26.940;2023-02-28T15:24:33;23.85;;;16.23;;
40871;SDS011;26591;43.264;26.940;2023-02-28T15:27:04;20.33;;;15.02;;
40871;SDS011;26591;43.264;26.940;2023-02-28T15:29:44;24.80;;;16.40;;
40871;SDS011;26591;43.264;26.940;2023-02-28T15:32:48;23.52;;;18.40;;
40871;SDS011;26591;43.264;26.940;2023-02-28T15:37:57;24.80;;;16.20;;
40871;SDS011;26591;43.264;26.940;2023-02-28T15:40:27;22.45;;;18.02;;
40871;SDS011;26591;43.264;26.940;2023-02-28T15:45:36;20.50;;;16.08;;
40871;SDS011;26591;43.264;26.940;2023-02-28T15:50:47;27.08;;;20.70;;
40871;SDS011;26591;43.264;26.940;2023-02-28T15:53:21;17.92;;;14.45;;
40871;SDS011;26591;43.264;26.940;2023-02-28T15:55:59;25.20;;;16.52;;
40871;SDS011;26591;43.264;26.940;2023-02-28T15:58:27;25.35;;;16.55;;
40871;SDS011;26591;43.264;26.940;2023-02-28T16:01:27;16.40;;;12.93;;
40871;SDS011;26591;43.264;26.940;2023-02-28T16:03:50;23.75;;;17.20;;
40871;SDS011;26591;43.264;26.940;2023-02-28T16:08:46;26.27;;;16.20;;
40871;SDS011;26591;43.264;26.940;2023-02-28T16:11:13;30.25;;;18.58;;
40871;SDS011;26591;43.264;26.940;2023-02-28T16:13:40;25.15;;;17.80;;
40871;SDS011;26591;43.264;26.940;2023-02-28T16:16:05;24.33;;;19.42;;
40871;SDS011;26591;43.264;26.940;2023-02-28T16:18:31;20.85;;;16.95;;
40871;SDS011;26591;43.264;26.940;2023-02-28T16:20:56;28.02;;;22.02;;
40871;SDS011;26591;43.264;26.940;2023-02-28T16:23:22;29.88;;;19.90;;
40871;SDS011;26591;43.264;26.940;2023-02-28T16:25:50;26.60;;;19.92;;
40871;SDS011;26591;43.264;26.940;2023-02-28T16:30:46;27.48;;;20.88;;
40871;SDS011;26591;43.264;26.940;2023-02-28T16:33:11;28.48;;;20.25;;
40871;SDS011;26591;43.264;26.940;2023-02-28T16:35:37;27.33;;;20.70;;
40871;SDS011;26591;43.264;26.940;2023-02-28T16:38:02;36.63;;;24.15;;
40871;SDS011;26591;43.264;26.940;2023-02-28T16:40:34;43.03;;;30.63;;
40871;SDS011;26591;43.264;26.940;2023-02-28T16:43:01;25.40;;;19.27;;
40871;SDS011;26591;43.264;26.940;2023-02-28T16:45:32;34.50;;;20.55;;
40871;SDS011;26591;43.264;26.940;2023-02-28T16:47:57;30.63;;;22.33;;
40871;SDS011;26591;43.264;26.940;2023-02-28T16:50:24;33.45;;;24.00;;
40871;SDS011;26591;43.264;26.940;2023-02-28T16:52:51;33.28;;;22.77;;
40871;SDS011;26591;43.264;26.940;2023-02-28T16:55:17;32.17;;;20.50;;
40871;SDS011;26591;43.264;26.940;2023-02-28T16:57:44;37.05;;;25.88;;
40871;SDS011;26591;43.264;26.940;2023-02-28T17:00:17;31.05;;;21.73;;
40871;SDS011;26591;43.264;26.940;2023-02-28T17:02:43;34.15;;;21.67;;
40871;SDS011;26591;43.264;26.940;2023-02-28T17:05:10;29.63;;;18.67;;
40871;SDS011;26591;43.264;26.940;2023-02-28T17:07:37;48.40;;;29.17;;
40871;SDS011;26591;43.264;26.940;2023-02-28T17:10:10;36.28;;;23.35;;
40871;SDS011;26591;43.264;26.940;2023-02-28T17:12:40;47.45;;;28.92;;
40871;SDS011;26591;43.264;26.940;2023-02-28T17:15:06;34.30;;;23.50;;
40871;SDS011;26591;43.264;26.940;2023-02-28T17:17:31;40.47;;;26.25;;
40871;SDS011;26591;43.264;26.940;2023-02-28T17:19:57;43.15;;;29.40;;